JapanFixed distance
Fuji 5 Lakes 100 km Challenge
20 Apr2014
Distance
100km
Finishers
1,3731,189 men184 women
Winning time
7:26:14h
Median pace
7.81km/h
Pace distribution
1,373 finishers · 7.14–13.45 km/h · mean 8.17
Every finisher ran the same 100 km course, so these paces are directly comparable.
Histogram of finisher pace. 1,373 finishers ranged from 7.14 to 13.45 kilometres per hour, with a mean of 8.17 and a median of 7.81. The busiest band is 7.0 to 7.5 kilometres per hour, with 450 finishers.
Results
Ranks 851–900 of 1,373
| Rank | Runner | Time | Pace | Cat. | Placing |
|---|---|---|---|---|---|
| 851 | Shimamura, HirochikaJapanMan | 13:10:04h | 7.59 | M40 | 759th M · 160th M40 |
| 852 | Kuroda, YasuoJapanMan 東海マラニック | 13:10:09h | 7.59 | M60 | 760th M · 18th M60 |
| 853 | Tanji, SadashiJapanMan | 13:10:12h | 7.59 | M23 | 761st M · 120th M23 |
| 854 | Hagiwara, MakotoJapanMan BPM | 13:10:14h | 7.59 | M23 | 762nd M · 121st M23 |
| 855 | Isono, KeikoJapanWoman BPM | 13:10:14h | 7.59 | W35 | 93rd F · 19th W35 |
| 856 | Matsumoto, YutakaJapanMan チーム9 | 13:10:17h | 7.59 | M50 | 763rd M · 105th M50 |
| 857 | Kumagai, AkikoJapanWoman *Gifu Pref. | 13:10:20h | 7.59 | W60 | 94th F · 2nd W60 |
| 858 | Ueda, KazuhiroJapanMan *Osaka Pref. | 13:10:35h | 7.59 | M45 | 764th M · 177th M45 |
| 859 | Sato, YukikoJapanWoman *Tokyo | 13:10:55h | 7.59 | W40 | 95th F · 18th W40 |
| 860 | Shimanaka, HidemiJapanMan | 13:11:13h | 7.58 | M35 | 765th M · 129th M35 |
| 861 | Taguchi, SeijiJapanMan *Aichi Pref. | 13:11:31h | 7.58 | M45 | 766th M · 178th M45 |
| 862 | Amano, KosukeJapanMan 東洋大学OB | 13:11:37h | 7.58 | M45 | 767th M · 179th M45 |
| 863 | Ozaki, TakeshiJapanMan *Shizuoka Pref. | 13:11:39h | 7.58 | M50 | 768th M · 106th M50 |
| 864 | Kotsuka, TomoeJapanWoman | 13:11:49h | 7.58 | W35 | 96th F · 20th W35 |
| 865 | Matsushita, RiekoJapanWoman | 13:11:59h | 7.58 | W40 | 97th F · 19th W40 |
| 866 | Yamamoto, NatsukoJapanWoman チームTGN | 13:12:00h | 7.58 | W45 | 98th F · 22nd W45 |
| 867 | Yoshikawa, TakakiJapanMan | 13:12:23h | 7.57 | M45 | 769th M · 180th M45 |
| 868 | Tsurumaki, TakashiJapanMan 新潟交通MC | 13:12:26h | 7.57 | M45 | 770th M · 181st M45 |
| 869 | Ashisawa, TakaeJapanWoman | 13:12:26h | 7.57 | W40 | 99th F · 20th W40 |
| 870 | Yajima, AzusaJapanWoman | 13:12:27h | 7.57 | W23 | 100th F · 19th W23 |
| 871 | Ito, YushiJapanMan | 13:12:32h | 7.57 | M45 | 771st M · 182nd M45 |
| 872 | Oze, KojiJapanMan *Hyogo Pref. | 13:12:42h | 7.57 | M40 | 772nd M · 161st M40 |
| 873 | Yoshihara, KenjiJapanMan TJP | 13:12:47h | 7.57 | M60 | 773rd M · 19th M60 |
| 874 | Ishizaka, JunichiJapanMan *Kanagawa Pref. | 13:12:48h | 7.57 | M45 | 774th M · 183rd M45 |
| 875 | Terao, KeiichiJapanMan | 13:13:18h | 7.56 | M35 | 775th M · 130th M35 |
| 876 | Ootake, TsuneyukiJapanMan 武田薬品 | 13:13:18h | 7.56 | M23 | 775th M · 122nd M23 |
| 877 | Ichihashi, IkariyaJapanMan | 13:13:23h | 7.56 | M35 | 777th M · 131st M35 |
| 878 | Adachi, TomoakiJapanMan チームまりん | 13:13:26h | 7.56 | M35 | 778th M · 132nd M35 |
| 879 | Amano, TatsuyaJapanMan | 13:13:33h | 7.56 | M40 | 779th M · 162nd M40 |
| 880 | Hatano, NobuhiroJapanMan | 13:13:53h | 7.56 | M35 | 780th M · 133rd M35 |
| 881 | Mitani, KazushiJapanMan ジェピコ | 13:14:12h | 7.55 | M35 | 781st M · 134th M35 |
| 882 | Sonoda, DaisukeJapanMan スズケン 兵庫 | 13:14:33h | 7.55 | M55 | 782nd M · 47th M55 |
| 883 | Kawano, ShiroJapanMan 走快倶楽部 | 13:14:33h | 7.55 | M45 | 782nd M · 184th M45 |
| 884 | Takechi, YoshiakiJapanMan | 13:14:48h | 7.55 | M40 | 784th M · 163rd M40 |
| 885 | Ito, NaokiJapanMan | 13:14:57h | 7.55 | M23 | 785th M · 123rd M23 |
| 886 | Tezuka, YohheiJapanMan 戸ケ野RC | 13:15:04h | 7.55 | M23 | 786th M · 124th M23 |
| 887 | Numakami, ToshiakiJapanMan *Chiba Pref. | 13:15:33h | 7.54 | M60 | 787th M · 20th M60 |
| 888 | Shiokawa, KenjiJapanMan 中央堂 | 13:15:51h | 7.54 | M35 | 788th M · 135th M35 |
| 889 | Takagawa, MakotoJapanMan 京極陸上部 | 13:15:52h | 7.54 | M23 | 789th M · 125th M23 |
| 890 | Okubo, KiyohikoJapanMan ケセラセR | 13:15:58h | 7.54 | M50 | 790th M · 107th M50 |
| 891 | Ooseki, JunshiJapanMan 膝がグチャ | 13:16:07h | 7.54 | M35 | 791st M · 136th M35 |
| 892 | Sakano, BannoJapanWoman *Aichi Pref. | 13:16:11h | 7.54 | W23 | 101st F · 20th W23 |
| 893 | Aoki, MasakoJapanWoman | 13:16:20h | 7.54 | W23 | 102nd F · 21st W23 |
| 894 | Kurosawa, RyoJapanMan 百々RC | 13:16:30h | 7.53 | M35 | 792nd M · 137th M35 |
| 895 | Komiyama, KenichiJapanMan *Kanagawa Pref. | 13:16:43h | 7.53 | M45 | 793rd M · 185th M45 |
| 896 | Asayama, MikiJapanMan 昭和の酔っぱらい | 13:16:45h | 7.53 | M50 | 794th M · 108th M50 |
| 897 | Igarashi, KenichiJapanMan | 13:16:50h | 7.53 | M35 | 795th M · 138th M35 |
| 898 | Naito, HiroyoshiJapanMan TEAM無問題 | 13:16:59h | 7.53 | M40 | 796th M · 164th M40 |
| 899 | Goto, KatsuyukiJapanMan 太平です | 13:17:04h | 7.53 | M40 | 797th M · 165th M40 |
| 900 | Iwase, HiroakiJapanMan ハマ☆ラン | 13:17:10h | 7.53 | M23 | 798th M · 126th M23 |
- 851Shimamura, HirochikaJapanMan759th M · 160th M40Time13:10:04hPace7.59Cat.M40
- 852Kuroda, YasuoJapanMan東海マラニック760th M · 18th M60Time13:10:09hPace7.59Cat.M60
- 853Tanji, SadashiJapanMan761st M · 120th M23Time13:10:12hPace7.59Cat.M23
- 854Hagiwara, MakotoJapanManBPM762nd M · 121st M23Time13:10:14hPace7.59Cat.M23
- 855Isono, KeikoJapanWomanBPM93rd F · 19th W35Time13:10:14hPace7.59Cat.W35
- 856Matsumoto, YutakaJapanManチーム9763rd M · 105th M50Time13:10:17hPace7.59Cat.M50
- 857Kumagai, AkikoJapanWoman*Gifu Pref.94th F · 2nd W60Time13:10:20hPace7.59Cat.W60
- 858Ueda, KazuhiroJapanMan*Osaka Pref.764th M · 177th M45Time13:10:35hPace7.59Cat.M45
- 859Sato, YukikoJapanWoman*Tokyo95th F · 18th W40Time13:10:55hPace7.59Cat.W40
- 860Shimanaka, HidemiJapanMan765th M · 129th M35Time13:11:13hPace7.58Cat.M35
- 861Taguchi, SeijiJapanMan*Aichi Pref.766th M · 178th M45Time13:11:31hPace7.58Cat.M45
- 862Amano, KosukeJapanMan東洋大学OB767th M · 179th M45Time13:11:37hPace7.58Cat.M45
- 863Ozaki, TakeshiJapanMan*Shizuoka Pref.768th M · 106th M50Time13:11:39hPace7.58Cat.M50
- 864Kotsuka, TomoeJapanWoman96th F · 20th W35Time13:11:49hPace7.58Cat.W35
- 865Matsushita, RiekoJapanWoman97th F · 19th W40Time13:11:59hPace7.58Cat.W40
- 866Yamamoto, NatsukoJapanWomanチームTGN98th F · 22nd W45Time13:12:00hPace7.58Cat.W45
- 867Yoshikawa, TakakiJapanMan769th M · 180th M45Time13:12:23hPace7.57Cat.M45
- 868Tsurumaki, TakashiJapanMan新潟交通MC770th M · 181st M45Time13:12:26hPace7.57Cat.M45
- 869Ashisawa, TakaeJapanWoman99th F · 20th W40Time13:12:26hPace7.57Cat.W40
- 870Yajima, AzusaJapanWoman100th F · 19th W23Time13:12:27hPace7.57Cat.W23
- 871Ito, YushiJapanMan771st M · 182nd M45Time13:12:32hPace7.57Cat.M45
- 872Oze, KojiJapanMan*Hyogo Pref.772nd M · 161st M40Time13:12:42hPace7.57Cat.M40
- 873Yoshihara, KenjiJapanManTJP773rd M · 19th M60Time13:12:47hPace7.57Cat.M60
- 874Ishizaka, JunichiJapanMan*Kanagawa Pref.774th M · 183rd M45Time13:12:48hPace7.57Cat.M45
- 875Terao, KeiichiJapanMan775th M · 130th M35Time13:13:18hPace7.56Cat.M35
- 876Ootake, TsuneyukiJapanMan武田薬品775th M · 122nd M23Time13:13:18hPace7.56Cat.M23
- 877Ichihashi, IkariyaJapanMan777th M · 131st M35Time13:13:23hPace7.56Cat.M35
- 878Adachi, TomoakiJapanManチームまりん778th M · 132nd M35Time13:13:26hPace7.56Cat.M35
- 879Amano, TatsuyaJapanMan779th M · 162nd M40Time13:13:33hPace7.56Cat.M40
- 880Hatano, NobuhiroJapanMan780th M · 133rd M35Time13:13:53hPace7.56Cat.M35
- 881Mitani, KazushiJapanManジェピコ781st M · 134th M35Time13:14:12hPace7.55Cat.M35
- 882Sonoda, DaisukeJapanManスズケン 兵庫782nd M · 47th M55Time13:14:33hPace7.55Cat.M55
- 883Kawano, ShiroJapanMan走快倶楽部782nd M · 184th M45Time13:14:33hPace7.55Cat.M45
- 884Takechi, YoshiakiJapanMan784th M · 163rd M40Time13:14:48hPace7.55Cat.M40
- 885Ito, NaokiJapanMan785th M · 123rd M23Time13:14:57hPace7.55Cat.M23
- 886Tezuka, YohheiJapanMan戸ケ野RC786th M · 124th M23Time13:15:04hPace7.55Cat.M23
- 887Numakami, ToshiakiJapanMan*Chiba Pref.787th M · 20th M60Time13:15:33hPace7.54Cat.M60
- 888Shiokawa, KenjiJapanMan中央堂788th M · 135th M35Time13:15:51hPace7.54Cat.M35
- 889Takagawa, MakotoJapanMan京極陸上部789th M · 125th M23Time13:15:52hPace7.54Cat.M23
- 890Okubo, KiyohikoJapanManケセラセR790th M · 107th M50Time13:15:58hPace7.54Cat.M50
- 891Ooseki, JunshiJapanMan膝がグチャ791st M · 136th M35Time13:16:07hPace7.54Cat.M35
- 892Sakano, BannoJapanWoman*Aichi Pref.101st F · 20th W23Time13:16:11hPace7.54Cat.W23
- 893Aoki, MasakoJapanWoman102nd F · 21st W23Time13:16:20hPace7.54Cat.W23
- 894Kurosawa, RyoJapanMan百々RC792nd M · 137th M35Time13:16:30hPace7.53Cat.M35
- 895Komiyama, KenichiJapanMan*Kanagawa Pref.793rd M · 185th M45Time13:16:43hPace7.53Cat.M45
- 896Asayama, MikiJapanMan昭和の酔っぱらい794th M · 108th M50Time13:16:45hPace7.53Cat.M50
- 897Igarashi, KenichiJapanMan795th M · 138th M35Time13:16:50hPace7.53Cat.M35
- 898Naito, HiroyoshiJapanManTEAM無問題796th M · 164th M40Time13:16:59hPace7.53Cat.M40
- 899Goto, KatsuyukiJapanMan太平です797th M · 165th M40Time13:17:04hPace7.53Cat.M40
- 900Iwase, HiroakiJapanManハマ☆ラン798th M · 126th M23Time13:17:10hPace7.53Cat.M23
Showing ranks 851–900 of 1,373